Time;durP1;ratioP1;P1;durP2;ratioP2;P2;SDS_P1;SDS_P2;PMS_P1;PMS_P2;Temp;Humidity;BMP_temperature;BMP_pressure;BME280_temperature;BME280_humidity;BME280_pressure;Samples;Min_cycle;Max_cycle;Signal;HPM_P1;HPM_P2
2021/11/15 00:01:43;;;;;;;29.27;16.15;;;;;;;8.69;87.76;102877.44;5074418;28;20035;-68
2021/11/15 00:04:08;;;;;;;;;;;;;;;8.69;87.61;102866.00;5074855;28;20021;-68
2021/11/15 00:06:33;;;;;;;27.48;14.00;;;;;;;8.68;88.40;102865.13;5062794;28;19917;-68
2021/11/15 00:08:59;;;;;;;24.83;14.23;;;;;;;8.72;88.21;102860.72;5054467;28;20067;-68
2021/11/15 00:11:26;;;;;;;30.00;14.55;;;;;;;8.72;87.68;102849.25;5071972;28;20032;-68
2021/11/15 00:13:51;;;;;;;29.10;14.98;;;;;;;8.68;88.28;102858.97;5074566;28;20024;-68
2021/11/15 00:16:17;;;;;;;30.77;14.15;;;;;;;8.68;87.77;102867.78;5069965;28;20492;-68
2021/11/15 00:18:42;;;;;;;28.17;15.00;;;;;;;8.66;88.04;102866.03;5054266;28;20053;-67
2021/11/15 00:21:08;;;;;;;26.35;14.60;;;;;;;8.65;88.20;102865.13;5064380;28;20052;-68
2021/11/15 00:23:33;;;;;;;28.42;15.05;;;;;;;8.69;87.16;102858.09;5073996;28;20056;-67
2021/11/15 00:25:58;;;;;;;26.98;14.20;;;;;;;8.68;87.64;102859.84;5074164;28;20028;-68
2021/11/15 00:28:23;;;;;;;29.45;14.48;;;;;;;8.64;87.71;102868.66;5057956;28;20029;-68
2021/11/15 00:30:49;;;;;;;27.52;14.63;;;;;;;8.63;87.40;102859.00;5055626;28;20051;-68
2021/11/15 00:33:14;;;;;;;28.20;14.75;;;;;;;8.62;87.42;102866.91;5073491;28;20035;-67
2021/11/15 00:35:39;;;;;;;28.98;15.30;;;;;;;8.61;87.31;102866.03;5083239;28;20032;-68
2021/11/15 00:38:05;;;;;;;29.08;15.45;;;;;;;8.58;87.73;102858.13;5071947;28;20108;-67
2021/11/15 00:40:30;;;;;;;27.45;15.48;;;;;;;8.58;88.03;102857.25;5053970;28;20028;-68
2021/11/15 00:42:56;;;;;;;28.73;15.15;;;;;;;8.60;87.71;102860.78;5068725;28;20025;-68
2021/11/15 00:45:21;;;;;;;28.58;14.52;;;;;;;8.61;86.96;102863.41;5073845;28;20384;-68
2021/11/15 00:47:47;;;;;;;28.38;14.90;;;;;;;8.59;87.60;102857.22;5072690;28;20469;-68
2021/11/15 00:50:17;;;;;;;26.95;14.50;;;;;;;8.59;87.68;102853.72;5053982;28;20461;-68
2021/11/15 00:52:43;;;;;;;28.45;15.15;;;;;;;8.58;87.90;102855.50;5060993;28;20024;-67
2021/11/15 00:55:08;;;;;;;29.02;15.52;;;;;;;8.58;88.28;102850.22;5073534;28;20025;-68
2021/11/15 00:57:33;;;;;;;26.50;14.25;;;;;;;8.62;87.34;102848.41;5073631;28;20036;-68
2021/11/15 00:59:59;;;;;;;25.65;13.15;;;;;;;8.65;86.30;102851.94;5060035;28;20028;-68
2021/11/15 01:02:27;;;;;;;25.67;14.52;;;;;;;8.60;86.98;102844.91;5053051;28;20057;-67
2021/11/15 01:04:53;;;;;;;26.42;14.75;;;;;;;8.62;86.60;102845.78;5073581;28;20054;-68
2021/11/15 01:07:18;;;;;;;25.00;14.55;;;;;;;8.60;86.84;102855.47;5073282;28;20520;-68
2021/11/15 01:09:43;;;;;;;25.65;14.52;;;;;;;8.59;86.74;102848.44;5067378;28;20035;-68
2021/11/15 01:12:08;;;;;;;21.77;13.15;;;;;;;8.63;86.19;102855.47;5053070;28;20480;-68
2021/11/15 01:14:34;;;;;;;24.17;13.73;;;;;;;8.61;85.78;102847.56;5065511;28;20016;-68
2021/11/15 01:16:59;;;;;;;27.50;14.68;;;;;;;8.51;86.58;102846.69;5072819;28;20115;-68
2021/11/15 01:19:25;;;;;;;21.45;13.45;;;;;;;8.51;87.35;102851.97;5072732;28;20120;-68
2021/11/15 01:21:50;;;;;;;24.33;13.13;;;;;;;8.55;87.08;102851.97;5054720;28;20029;-68
2021/11/15 01:24:16;;;;;;;25.83;13.20;;;;;;;8.53;86.08;102846.72;5057500;28;20369;-68
2021/11/15 01:26:41;;;;;;;24.45;13.27;;;;;;;8.51;85.90;102843.19;5072981;28;20435;-68
2021/11/15 01:29:07;;;;;;;23.98;13.20;;;;;;;8.51;86.03;102840.56;5072588;28;20041;-67
2021/11/15 01:31:32;;;;;;;21.55;12.00;;;;;;;8.53;85.73;102844.06;5062903;28;20033;-68
2021/11/15 01:34:01;;;;;;;22.33;13.05;;;;;;;8.54;85.70;102840.53;5052637;28;20055;-68
2021/11/15 01:36:27;;;;;;;21.65;12.70;;;;;;;8.50;86.56;102839.69;5070148;28;20452;-68
2021/11/15 01:38:52;;;;;;;20.17;12.88;;;;;;;8.48;87.14;102840.56;5072875;28;20031;-67
2021/11/15 01:41:17;;;;;;;21.65;12.65;;;;;;;8.54;86.66;102832.59;5070829;28;20040;-69
2021/11/15 01:43:43;;;;;;;23.88;13.07;;;;;;;8.50;85.71;102823.84;5062994;28;20025;-69
2021/11/15 01:46:08;;;;;;;22.23;12.32;;;;;;;8.52;85.59;102814.13;5072616;28;20029;-68
2021/11/15 01:48:33;;;;;;;20.38;11.90;;;;;;;8.56;85.49;102828.22;5072338;28;20054;-68
2021/11/15 01:50:59;;;;;;;21.27;12.40;;;;;;;8.52;86.04;102834.38;5072787;28;20028;-67
2021/11/15 01:53:24;;;;;;;22.13;12.23;;;;;;;8.48;85.08;102835.28;5061292;28;20465;-68
2021/11/15 01:55:50;;;;;;;19.90;12.13;;;;;;;8.46;85.35;102826.50;5072627;28;20025;-68
2021/11/15 01:58:17;;;;;;;22.88;12.38;;;;;;;8.47;84.53;102831.75;5072455;28;20426;-68
2021/11/15 02:00:48;;;;;;;21.95;12.88;;;;;;;8.44;85.30;102829.09;5072372;28;20033;-68
2021/11/15 02:03:14;;;;;;;21.57;11.87;;;;;;;8.46;85.37;102837.91;5064576;28;20023;-68
2021/11/15 02:05:40;;;;;;;26.30;12.32;;;;;;;8.45;85.36;102837.91;5068935;28;20283;-68
2021/11/15 02:08:08;;;;;;;19.45;12.05;;;;;;;8.41;85.33;102831.75;5072436;28;20038;-68
2021/11/15 02:10:34;;;;;;;20.58;12.18;;;;;;;8.42;84.90;102830.00;5072383;28;20033;-68
2021/11/15 02:12:59;;;;;;;21.60;12.23;;;;;;;8.43;85.21;102829.13;5071635;28;20024;-68
2021/11/15 02:15:25;;;;;;;22.20;11.77;;;;;;;8.40;85.54;102837.03;5061593;28;20028;-68
2021/11/15 02:17:51;;;;;;;22.80;12.50;;;;;;;8.40;85.92;102823.84;5072333;28;20031;-68
2021/11/15 02:20:21;;;;;;;21.38;12.85;;;;;;;8.38;85.54;102837.03;5072241;28;20039;-68
2021/11/15 02:22:48;;;;;;;20.63;11.63;;;;;;;8.41;85.21;102833.53;5072188;28;20033;-68
2021/11/15 02:25:15;;;;;;;18.67;11.43;;;;;;;8.46;84.79;102839.69;5061055;28;20060;-68
2021/11/15 02:27:40;;;;;;;20.25;11.75;;;;;;;8.43;84.61;102837.03;5072443;28;20496;-67
2021/11/15 02:30:14;;;;;;;19.98;11.55;;;;;;;8.44;84.45;102836.13;5072042;28;20052;-67
2021/11/15 02:32:40;;;;;;;21.83;11.77;;;;;;;8.42;84.98;102836.16;5072039;28;20073;-67
2021/11/15 02:35:07;;;;;;;19.80;11.70;;;;;;;8.43;84.59;102837.03;5064843;28;20021;-68
2021/11/15 02:37:32;;;;;;;20.35;12.13;;;;;;;8.45;84.89;102835.25;5071016;28;20071;-68
2021/11/15 02:39:57;;;;;;;20.63;11.40;;;;;;;8.45;85.03;102836.16;5072441;28;20067;-68
2021/11/15 02:42:24;;;;;;;20.80;12.65;;;;;;;8.42;84.78;102832.63;5072151;28;20017;-68
2021/11/15 02:44:49;;;;;;;20.55;12.05;;;;;;;8.43;84.65;102834.41;5071228;28;20024;-68
2021/11/15 02:47:18;;;;;;;23.70;12.45;;;;;;;8.40;84.88;102827.38;5063896;28;20586;-68
2021/11/15 02:49:44;;;;;;;22.52;12.20;;;;;;;8.33;85.66;102826.50;5071757;28;20137;-68
2021/11/15 02:52:09;;;;;;;20.48;11.98;;;;;;;8.33;85.31;102821.22;5072081;28;20497;-67
2021/11/15 02:54:34;;;;;;;21.83;11.93;;;;;;;8.28;85.20;102820.34;5072533;28;20024;-69
2021/11/15 02:57:00;;;;;;;21.65;11.85;;;;;;;8.25;84.87;102822.13;5066690;28;20469;-68
2021/11/15 02:59:25;;;;;;;23.15;12.27;;;;;;;8.27;85.41;102828.28;5075790;28;20029;-68
2021/11/15 03:01:50;;;;;;;21.70;11.38;;;;;;;8.27;85.74;102821.22;5075713;28;20044;-68
2021/11/15 03:04:16;;;;;;;20.58;12.30;;;;;;;8.28;86.10;102822.13;5075413;28;20430;-68
2021/11/15 03:06:41;;;;;;;24.58;13.45;;;;;;;8.27;86.58;102825.66;5070436;28;20055;-68
2021/11/15 03:09:07;;;;;;;22.23;12.45;;;;;;;8.29;86.32;102822.13;5070056;28;20059;-68
2021/11/15 03:11:33;;;;;;;23.38;12.32;;;;;;;8.29;86.72;102816.84;5075420;28;20020;-68
2021/11/15 03:13:58;;;;;;;21.80;12.40;;;;;;;8.28;86.76;102820.34;5075597;28;20033;-68
2021/11/15 03:16:23;;;;;;;20.75;11.90;;;;;;;8.37;85.14;102822.09;5057119;28;20039;-67
2021/11/15 03:18:49;;;;;;;21.83;11.70;;;;;;;8.36;85.52;102826.50;5074722;28;20420;-68
2021/11/15 03:21:18;;;;;;;22.17;12.23;;;;;;;8.37;85.70;102832.66;5075055;28;20028;-68
2021/11/15 03:23:46;;;;;;;23.83;12.65;;;;;;;8.31;85.92;102830.91;5075362;28;20165;-67
2021/11/15 03:26:12;;;;;;;22.52;12.32;;;;;;;8.30;86.66;102828.25;5075235;28;20028;-67
2021/11/15 03:28:41;;;;;;;23.25;13.18;;;;;;;8.29;86.51;102824.75;5064763;28;20025;-68
2021/11/15 03:31:17;;;;;;;21.67;12.50;;;;;;;8.30;85.96;102828.25;5075524;28;20041;-68
2021/11/15 03:33:43;;;;;;;21.50;12.65;;;;;;;8.30;85.78;102830.91;5075000;28;20029;-67
2021/11/15 03:36:09;;;;;;;23.90;13.07;;;;;;;8.25;86.16;102822.13;5074766;28;20024;-68
2021/11/15 03:38:35;;;;;;;22.80;12.52;;;;;;;8.28;86.43;102825.63;5063862;28;20020;-68
2021/11/15 03:41:01;;;;;;;23.65;12.48;;;;;;;8.30;86.28;102825.63;5070300;28;20047;-68
2021/11/15 03:43:27;;;;;;;23.27;12.98;;;;;;;8.35;85.38;102831.75;5074923;28;20040;-68
2021/11/15 03:45:52;;;;;;;21.83;11.95;;;;;;;8.27;84.78;102825.66;5074801;28;20078;-68
2021/11/15 03:48:17;;;;;;;20.67;11.82;;;;;;;8.30;84.83;102823.88;5071388;28;20020;-68
2021/11/15 03:50:43;;;;;;;19.70;11.35;;;;;;;8.32;84.55;102823.88;5062125;28;20036;-68
2021/11/15 03:53:12;;;;;;;20.27;11.55;;;;;;;8.31;83.78;102827.38;5074390;28;20366;-68
2021/11/15 03:55:38;;;;;;;20.77;11.43;;;;;;;8.29;83.82;102832.69;5074887;28;20021;-68
2021/11/15 03:58:05;;;;;;;19.58;11.23;;;;;;;8.25;84.77;102828.28;5074559;28;20027;-68
2021/11/15 04:00:33;;;;;;;21.88;11.65;;;;;;;8.22;85.09;102827.41;5058418;28;20033;-68
2021/11/15 04:03:03;;;;;;;20.27;11.00;;;;;;;8.18;85.74;102832.72;5075454;28;20029;-68
2021/11/15 04:05:33;;;;;;;22.98;12.27;;;;;;;8.17;85.91;102830.97;5074519;28;20077;-68
2021/11/15 04:08:01;;;;;;;23.00;12.32;;;;;;;8.25;85.28;102827.41;5073265;28;20016;-68
2021/11/15 04:10:30;;;;;;;21.33;11.43;;;;;;;8.18;85.26;102823.91;5064071;28;20032;-68
2021/11/15 04:12:57;;;;;;;20.40;11.38;;;;;;;8.22;85.35;102827.41;5069413;28;20031;-68
2021/11/15 04:15:23;;;;;;;24.92;11.80;;;;;;;8.18;85.71;102832.72;5073211;28;20180;-68
2021/11/15 04:17:50;;;;;;;23.40;11.82;;;;;;;8.12;86.03;102826.56;5073878;28;20453;-68
2021/11/15 04:20:18;;;;;;;22.27;11.55;;;;;;;8.08;85.40;102835.38;5072343;28;20033;-68
2021/11/15 04:22:43;;;;;;;23.80;11.52;;;;;;;8.07;85.42;102833.59;5078136;28;20504;-68
2021/11/15 04:25:10;;;;;;;22.80;11.27;;;;;;;8.08;86.45;102835.38;5094209;28;20036;-67
2021/11/15 04:27:35;;;;;;;18.48;10.48;;;;;;;8.09;85.95;102827.44;5094211;28;20036;-67
2021/11/15 04:30:02;;;;;;;22.40;10.57;;;;;;;8.09;86.29;102831.84;5094082;28;20138;-68
2021/11/15 04:32:28;;;;;;;21.77;11.13;;;;;;;8.07;87.08;102838.88;5062283;28;20024;-68
2021/11/15 04:34:53;;;;;;;22.83;11.68;;;;;;;8.13;86.49;102828.31;5074100;28;20089;-68
2021/11/15 04:37:19;;;;;;;22.77;11.82;;;;;;;8.12;86.30;102829.19;5073598;28;20361;-68
2021/11/15 04:39:45;;;;;;;21.95;12.35;;;;;;;8.14;86.59;102830.94;5065136;28;20032;-69
2021/11/15 04:42:11;;;;;;;22.08;11.48;;;;;;;8.14;86.71;102833.59;5060371;28;20024;-68
2021/11/15 04:44:37;;;;;;;22.83;11.43;;;;;;;8.16;86.70;102825.69;5075000;28;20021;-68
2021/11/15 04:47:03;;;;;;;23.50;11.65;;;;;;;8.16;86.57;102825.69;5073926;28;20460;-68
2021/11/15 04:49:28;;;;;;;22.48;11.80;;;;;;;8.20;86.64;102827.44;5073518;28;20063;-67
2021/11/15 04:51:55;;;;;;;25.02;12.05;;;;;;;8.13;87.00;102817.75;5072813;28;20130;-67
2021/11/15 04:54:20;;;;;;;23.98;12.73;;;;;;;8.08;87.82;102823.06;5059234;28;20028;-68
2021/11/15 04:56:46;;;;;;;24.73;11.63;;;;;;;8.06;88.59;102834.47;5073617;28;20048;-68
2021/11/15 04:59:11;;;;;;;27.85;12.23;;;;;;;8.08;88.93;102835.38;5073327;28;20041;-68
2021/11/15 05:01:38;;;;;;;24.23;11.80;;;;;;;8.06;88.96;102837.13;5073316;28;20037;-68
2021/11/15 05:04:03;;;;;;;25.73;12.20;;;;;;;8.12;88.83;102840.66;5060812;28;20059;-68
2021/11/15 05:06:29;;;;;;;20.88;11.77;;;;;;;8.12;88.70;102848.56;5071015;28;20033;-68
2021/11/15 05:08:55;;;;;;;25.15;12.27;;;;;;;8.06;88.88;102839.75;5073047;28;20472;-68
2021/11/15 05:11:20;;;;;;;22.30;11.60;;;;;;;8.03;89.37;102843.28;5072988;28;20024;-68
2021/11/15 05:13:45;;;;;;;23.30;11.48;;;;;;;8.02;89.04;102846.81;5065200;28;20032;-68
2021/11/15 05:16:11;;;;;;;23.27;11.98;;;;;;;8.02;89.27;102829.22;5074061;28;20092;-68
2021/11/15 05:18:37;;;;;;;23.60;11.27;;;;;;;8.02;89.37;102831.88;5055713;28;20116;-68
2021/11/15 05:21:02;;;;;;;25.13;11.50;;;;;;;8.02;88.94;102823.94;5053263;28;20037;-68
2021/11/15 05:23:28;;;;;;;18.45;10.38;;;;;;;8.02;88.93;102829.22;5061294;28;20140;-68
2021/11/15 05:25:54;;;;;;;20.88;11.27;;;;;;;8.01;88.72;102827.47;5072827;28;20427;-68
2021/11/15 05:28:20;;;;;;;24.17;11.25;;;;;;;7.90;89.33;102834.50;5073529;28;20044;-68
2021/11/15 05:30:46;;;;;;;24.33;11.38;;;;;;;7.86;89.50;102832.78;5072580;28;20492;-68
2021/11/15 05:33:11;;;;;;;20.38;10.65;;;;;;;7.84;89.07;102835.41;5071051;28;20062;-68
2021/11/15 05:35:36;;;;;;;22.80;10.95;;;;;;;7.86;89.50;102838.03;5034765;28;20404;-67
2021/11/15 05:38:02;;;;;;;20.70;10.20;;;;;;;7.86;89.05;102840.69;5067036;28;20104;-68
2021/11/15 05:40:28;;;;;;;19.52;10.60;;;;;;;7.87;88.24;102839.81;5072441;28;20056;-67
2021/11/15 05:42:55;;;;;;;19.60;10.32;;;;;;;7.88;88.42;102844.22;5072646;28;20031;-68
2021/11/15 05:45:22;;;;;;;18.95;10.52;;;;;;;7.94;87.50;102849.47;5058446;28;20031;-68
2021/11/15 05:47:48;;;;;;;19.85;9.82;;;;;;;7.94;87.74;102848.59;5065438;28;20033;-68
2021/11/15 05:50:15;;;;;;;19.38;10.27;;;;;;;7.93;88.22;102847.72;5072419;28;20039;-68
2021/11/15 05:52:42;;;;;;;21.42;10.85;;;;;;;7.90;88.66;102855.63;5072394;28;20029;-67
2021/11/15 05:55:10;;;;;;;21.20;10.82;;;;;;;7.91;88.42;102846.81;5065583;28;20017;-68
2021/11/15 05:57:35;;;;;;;21.00;10.57;;;;;;;7.88;89.07;102847.72;5058211;28;20028;-67
2021/11/15 06:00:03;;;;;;;26.35;11.90;;;;;;;7.84;89.10;102843.31;5072284;28;20036;-68
2021/11/15 06:02:28;;;;;;;21.08;10.48;;;;;;;7.86;89.47;102845.97;5072401;28;20103;-68
2021/11/15 06:04:53;;;;;;;22.55;11.82;;;;;;;7.87;89.16;102847.72;5071565;28;20031;-68
2021/11/15 06:07:18;;;;;;;24.45;12.18;;;;;;;7.86;89.22;102854.78;5054294;28;20036;-67
2021/11/15 06:09:44;;;;;;;21.75;11.25;;;;;;;7.88;88.36;102847.72;5070648;28;20025;-68
2021/11/15 06:12:09;;;;;;;20.85;11.40;;;;;;;7.87;88.14;102851.22;5076115;28;20066;-67
2021/11/15 06:14:35;;;;;;;20.60;10.90;;;;;;;7.81;88.55;102858.28;5072261;28;20107;-67
2021/11/15 06:17:01;;;;;;;22.75;11.25;;;;;;;7.76;89.61;102858.25;5070621;28;20476;-68
2021/11/15 06:19:26;;;;;;;22.23;11.60;;;;;;;7.76;90.10;102860.91;5072216;28;20085;-68
2021/11/15 06:21:52;;;;;;;19.35;11.13;;;;;;;7.78;89.87;102856.50;5073026;28;20491;-68
2021/11/15 06:24:17;;;;;;;22.17;11.48;;;;;;;7.78;89.74;102860.94;5071998;28;20035;-68
2021/11/15 06:26:43;;;;;;;21.35;12.05;;;;;;;7.82;89.12;102863.53;5067911;28;20050;-68
2021/11/15 06:29:09;;;;;;;21.80;11.57;;;;;;;7.77;88.93;102857.38;5051954;28;20040;-68
2021/11/15 06:31:34;;;;;;;23.60;11.60;;;;;;;7.80;88.60;102861.78;5064273;28;20035;-68
2021/11/15 06:33:59;;;;;;;21.15;11.25;;;;;;;7.81;88.60;102853.91;5076362;28;20025;-68
2021/11/15 06:36:25;;;;;;;22.83;11.07;;;;;;;7.83;88.25;102861.81;5069954;28;20025;-68
2021/11/15 06:38:53;;;;;;;22.65;11.82;;;;;;;7.83;88.37;102860.03;5056980;28;20080;-68
2021/11/15 06:41:19;;;;;;;22.95;11.02;;;;;;;7.84;88.30;102856.50;5055610;28;20029;-68
2021/11/15 06:43:44;;;;;;;22.58;11.77;;;;;;;7.83;88.97;102867.06;5073237;28;20105;-69
2021/11/15 06:46:10;;;;;;;23.35;12.27;;;;;;;7.81;88.92;102853.91;5055531;28;20482;-68
2021/11/15 06:48:41;;;;;;;20.83;11.93;;;;;;;7.82;89.45;102854.75;5059372;28;20033;-68
2021/11/15 06:51:10;;;;;;;24.13;11.73;;;;;;;7.84;89.32;102861.78;5075574;28;20025;-68
2021/11/15 06:53:37;;;;;;;21.25;11.95;;;;;;;7.81;88.70;102850.34;5074750;28;20036;-68
2021/11/15 06:56:04;;;;;;;21.02;12.00;;;;;;;7.81;88.75;102853.91;5075208;28;20024;-67
2021/11/15 06:58:31;;;;;;;22.25;12.77;;;;;;;7.80;88.68;102852.13;5072985;28;20040;-68
2021/11/15 07:00:56;;;;;;;22.42;12.20;;;;;;;7.79;88.89;102853.00;5055655;28;20033;-68
2021/11/15 07:03:22;;;;;;;25.50;13.30;;;;;;;7.83;88.83;102867.06;5085034;28;20468;-68
2021/11/15 07:05:48;;;;;;;21.08;12.43;;;;;;;7.80;88.71;102869.69;5075361;28;20021;-68
2021/11/15 07:08:14;;;;;;;21.85;11.85;;;;;;;7.79;89.29;102873.25;5066782;28;20488;-67
2021/11/15 07:10:39;;;;;;;20.65;12.00;;;;;;;7.79;88.93;102871.47;5056832;28;20131;-67
2021/11/15 07:13:05;;;;;;;22.50;12.95;;;;;;;7.77;89.36;102883.75;5059822;28;20025;-66
2021/11/15 07:15:30;;;;;;;25.27;13.52;;;;;;;7.78;89.03;102877.63;5071444;28;20464;-67
2021/11/15 07:17:56;;;;;;;23.48;12.45;;;;;;;7.78;88.70;102893.44;5042100;28;20025;-67
2021/11/15 07:20:21;;;;;;;25.40;13.95;;;;;;;7.79;88.84;102891.69;5061117;28;20033;-67
2021/11/15 07:22:48;;;;;;;24.25;13.32;;;;;;;7.76;88.65;102884.63;5058773;28;20040;-66
2021/11/15 07:25:15;;;;;;;26.10;13.52;;;;;;;7.75;89.17;102892.56;5075895;28;20025;-67
2021/11/15 07:27:41;;;;;;;23.92;13.10;;;;;;;7.74;88.88;102889.06;5074876;28;20419;-67
2021/11/15 07:30:08;;;;;;;23.25;12.48;;;;;;;7.69;89.16;102893.44;5073883;28;20052;-67
2021/11/15 07:32:33;;;;;;;25.48;12.55;;;;;;;7.66;89.63;102890.78;5074881;28;20021;-68
2021/11/15 07:34:58;;;;;;;24.90;12.98;;;;;;;7.70;89.22;102887.31;5075093;28;20380;-68
2021/11/15 07:37:24;;;;;;;26.98;13.35;;;;;;;7.67;89.53;102889.91;5073191;28;20024;-67
2021/11/15 07:39:49;;;;;;;26.42;13.70;;;;;;;7.69;89.70;102881.13;5064708;28;20029;-66
2021/11/15 07:42:17;;;;;;;25.00;12.40;;;;;;;7.71;89.28;102887.28;5072178;28;20028;-67
2021/11/15 07:44:44;;;;;;;25.73;13.15;;;;;;;7.78;88.98;102890.81;5076466;28;20134;-67
2021/11/15 07:47:10;;;;;;;27.33;14.25;;;;;;;7.70;89.38;102879.38;5074595;28;20024;-67
2021/11/15 07:49:36;;;;;;;24.98;13.80;;;;;;;7.65;89.47;102886.44;5056550;28;20526;-66
2021/11/15 07:52:03;;;;;;;24.42;13.77;;;;;;;7.65;89.84;102883.78;5074543;28;20029;-67
2021/11/15 07:54:29;;;;;;;27.13;13.48;;;;;;;7.58;89.88;102889.94;5072868;28;20028;-66
2021/11/15 07:56:54;;;;;;;25.55;13.45;;;;;;;7.53;90.22;102882.00;5073830;28;20028;-67
2021/11/15 07:59:20;;;;;;;25.10;13.50;;;;;;;7.51;90.44;102878.50;5070640;28;20101;-66
2021/11/15 08:01:45;;;;;;;26.05;13.73;;;;;;;7.52;90.14;102888.19;5071238;28;20025;-67
2021/11/15 08:04:10;;;;;;;24.65;13.27;;;;;;;7.45;90.20;102879.34;5072793;28;20029;-67
2021/11/15 08:06:36;;;;;;;24.75;13.38;;;;;;;7.46;90.09;102885.53;5070996;28;20025;-69
2021/11/15 08:09:02;;;;;;;25.15;13.82;;;;;;;7.45;90.45;102879.34;5039207;28;20484;-68
2021/11/15 08:11:30;;;;;;;24.35;13.00;;;;;;;7.46;90.50;102888.16;5054657;28;20068;-69
2021/11/15 08:13:56;;;;;;;24.73;13.40;;;;;;;7.46;90.58;102878.50;5054414;28;20036;-66
2021/11/15 08:16:21;;;;;;;23.20;12.38;;;;;;;7.48;90.14;102881.13;5073778;28;20120;-66
2021/11/15 08:18:46;;;;;;;22.60;12.23;;;;;;;7.45;90.23;102875.84;5074786;28;20541;-68
2021/11/15 08:21:13;;;;;;;24.00;12.68;;;;;;;7.49;90.43;102882.88;5062121;28;20059;-67
2021/11/15 08:23:41;;;;;;;23.55;12.07;;;;;;;7.51;89.98;102882.00;5067034;28;20049;-67
2021/11/15 08:26:26;;;;;;;23.65;11.98;;;;;;;7.40;90.17;102885.50;5069522;28;20033;-67
2021/11/15 08:28:52;;;;;;;24.20;12.43;;;;;;;7.46;90.77;102877.63;5073675;28;20041;-67
2021/11/15 08:31:17;;;;;;;20.98;11.85;;;;;;;7.40;90.12;102886.38;5072979;28;20101;-66
2021/11/15 08:33:43;;;;;;;23.25;12.68;;;;;;;7.43;90.65;102886.41;5074123;28;20421;-67
2021/11/15 08:36:08;;;;;;;23.50;11.27;;;;;;;7.48;90.23;102875.84;5073550;28;20021;-67
2021/11/15 08:38:47;;;;;;;20.25;11.18;;;;;;;7.57;88.58;102883.78;5073721;28;20020;-67
2021/11/15 08:41:20;;;;;;;21.13;11.32;;;;;;;7.52;88.85;102881.13;5070708;28;20037;-67
2021/11/15 08:43:46;;;;;;;19.45;11.05;;;;;;;7.57;88.64;102878.50;5072606;28;20021;-67
2021/11/15 08:46:15;;;;;;;21.35;11.70;;;;;;;7.55;89.10;102874.97;5073516;28;20040;-68
2021/11/15 08:48:45;;;;;;;20.00;11.13;;;;;;;7.61;88.74;102871.47;5060204;28;20025;-66
2021/11/15 08:51:13;;;;;;;21.85;11.52;;;;;;;7.58;88.48;102872.34;5069647;28;20036;-67
2021/11/15 08:53:39;;;;;;;24.38;11.90;;;;;;;7.61;88.61;102871.47;5090619;28;20070;-69
2021/11/15 08:56:05;;;;;;;22.88;11.45;;;;;;;7.57;88.97;102874.97;5080499;28;20036;-67
2021/11/15 08:58:31;;;;;;;22.67;10.88;;;;;;;7.54;89.37;102874.13;5066366;28;20036;-68
2021/11/15 09:00:57;;;;;;;22.60;12.07;;;;;;;7.57;89.38;102877.63;5059030;28;20048;-67
2021/11/15 09:03:22;;;;;;;24.58;12.57;;;;;;;7.57;89.24;102873.25;5076950;28;20029;-67
2021/11/15 09:05:50;;;;;;;23.42;12.43;;;;;;;7.63;89.33;102873.22;5073417;28;20024;-66
2021/11/15 09:08:16;;;;;;;24.70;12.23;;;;;;;7.66;89.63;102874.97;5072161;28;20029;-66
2021/11/15 09:10:41;;;;;;;22.35;11.38;;;;;;;7.69;89.77;102878.50;5053716;28;20021;-66
2021/11/15 09:13:07;;;;;;;23.17;12.00;;;;;;;7.65;89.26;102875.88;5059761;28;20020;-67
2021/11/15 09:15:32;;;;;;;23.80;12.75;;;;;;;7.56;89.60;102876.75;5072926;28;20025;-67
2021/11/15 09:17:57;;;;;;;23.23;11.93;;;;;;;7.58;89.47;102879.38;5073279;28;20469;-68
2021/11/15 09:20:23;;;;;;;24.40;12.77;;;;;;;7.55;89.49;102875.84;5072854;28;20032;-66
2021/11/15 09:22:48;;;;;;;24.55;12.98;;;;;;;7.54;89.62;102871.47;5043100;28;20485;-67
2021/11/15 09:25:14;;;;;;;23.25;12.93;;;;;;;7.68;88.77;102873.22;5071423;28;20025;-66
2021/11/15 09:27:40;;;;;;;23.13;11.80;;;;;;;7.73;88.13;102870.59;5072754;28;20107;-67
2021/11/15 09:30:08;;;;;;;21.90;12.07;;;;;;;7.70;88.55;102868.84;5072482;28;20048;-67
2021/11/15 09:32:36;;;;;;;24.60;12.10;;;;;;;7.70;88.90;102874.97;5068661;28;20124;-66
2021/11/15 09:35:01;;;;;;;25.30;12.68;;;;;;;7.67;88.60;102868.81;5064282;28;20491;-66
2021/11/15 09:37:27;;;;;;;25.30;11.85;;;;;;;7.60;87.95;102864.44;5085498;28;20028;-67
2021/11/15 09:39:55;;;;;;;22.77;12.77;;;;;;;7.50;88.59;102864.41;5093098;28;20492;-67
2021/11/15 09:42:21;;;;;;;23.75;12.70;;;;;;;7.50;89.54;102861.78;5092857;28;20095;-67
2021/11/15 09:44:47;;;;;;;24.10;11.98;;;;;;;7.57;89.04;102860.06;5061649;28;20024;-66
2021/11/15 09:47:13;;;;;;;26.48;12.82;;;;;;;7.61;88.99;102867.06;5072587;28;20369;-67
2021/11/15 09:49:38;;;;;;;24.63;12.07;;;;;;;7.69;89.19;102859.16;5073001;28;20028;-67
2021/11/15 09:52:06;;;;;;;25.50;13.38;;;;;;;7.75;89.21;102858.28;5072550;28;20071;-68
2021/11/15 09:54:31;;;;;;;26.00;13.07;;;;;;;7.71;89.07;102853.00;5063225;28;20032;-67
2021/11/15 09:56:57;;;;;;;24.67;13.27;;;;;;;7.75;89.06;102853.91;5069006;28;20420;-67
2021/11/15 09:59:25;;;;;;;24.35;13.57;;;;;;;7.72;88.98;102856.50;5072292;28;20025;-66
2021/11/15 10:01:52;;;;;;;26.65;13.68;;;;;;;7.68;89.30;102847.72;5072445;28;20017;-68
2021/11/15 10:04:18;;;;;;;27.17;14.20;;;;;;;7.65;89.40;102854.78;5070007;28;20029;-66
2021/11/15 10:06:45;;;;;;;25.50;13.25;;;;;;;7.74;89.29;102854.78;5060979;28;20410;-66
2021/11/15 10:09:11;;;;;;;26.95;14.02;;;;;;;7.71;89.33;102863.56;5072434;28;20039;-66
2021/11/15 10:11:44;;;;;;;27.23;13.98;;;;;;;7.71;89.81;102867.94;5072442;28;20024;-69
2021/11/15 10:14:10;;;;;;;26.92;13.77;;;;;;;7.70;89.77;102860.94;5072213;28;20028;-68
2021/11/15 10:16:36;;;;;;;28.70;13.73;;;;;;;7.72;90.33;102869.69;5071795;28;20161;-68
2021/11/15 10:19:10;;;;;;;25.48;13.23;;;;;;;7.64;88.90;102877.63;5072203;28;20028;-68
2021/11/15 10:21:36;;;;;;;26.08;14.23;;;;;;;7.59;88.78;102873.22;5072425;28;20036;-68
2021/11/15 10:24:17;;;;;;;27.08;13.63;;;;;;;7.56;89.06;102871.47;5072316;28;20032;-68
2021/11/15 10:26:50;;;;;;;25.58;13.73;;;;;;;7.59;88.87;102865.31;5063226;28;20036;-68
2021/11/15 10:29:21;;;;;;;25.08;13.27;;;;;;;7.64;88.48;102850.38;5071216;28;20472;-68
2021/11/15 10:31:52;;;;;;;23.77;13.02;;;;;;;7.60;88.01;102848.63;5071839;28;20028;-69
2021/11/15 10:34:26;;;;;;;23.63;12.53;;;;;;;7.63;88.81;102857.38;5072251;28;20039;-68
2021/11/15 10:37:15;;;;;;;25.45;13.13;;;;;;;7.73;88.23;102854.78;5068468;28;20085;-68
2021/11/15 10:39:45;;;;;;;23.38;12.93;;;;;;;7.69;88.68;102851.25;5069279;28;20056;-68
2021/11/15 10:42:26;;;;;;;23.35;12.65;;;;;;;7.59;88.92;102860.03;5071985;28;20028;-67
2021/11/15 10:45:07;;;;;;;25.63;13.98;;;;;;;7.59;89.62;102852.13;5071788;28;20032;-67
2021/11/15 10:47:45;;;;;;;24.17;12.90;;;;;;;7.66;89.47;102852.13;5068889;28;20056;-67
2021/11/15 10:50:19;;;;;;;22.00;12.63;;;;;;;7.69;89.32;102860.03;5068271;28;20036;-67
2021/11/15 10:53:01;;;;;;;20.25;11.50;;;;;;;7.72;88.84;102859.16;5071973;28;20477;-67
2021/11/15 10:55:34;;;;;;;23.30;12.50;;;;;;;7.76;88.72;102857.41;5072165;28;20021;-67
2021/11/15 10:57:59;;;;;;;22.27;12.38;;;;;;;7.79;88.57;102845.09;5070727;28;20033;-64
2021/11/15 11:00:35;;;;;;;21.35;11.75;;;;;;;7.77;88.31;102838.06;5064680;28;20024;-67
2021/11/15 11:03:10;;;;;;;22.38;12.00;;;;;;;7.78;88.23;102839.81;5071864;28;20039;-67
2021/11/15 11:05:38;;;;;;;22.00;11.35;;;;;;;7.77;88.22;102841.56;5071904;28;20055;-68
2021/11/15 11:08:27;;;;;;;19.60;10.95;;;;;;;7.76;88.17;102842.44;5071853;28;20047;-68
2021/11/15 11:11:14;;;;;;;22.77;11.93;;;;;;;7.68;88.65;102831.03;5063190;28;20048;-69
2021/11/15 11:13:52;;;;;;;22.52;11.90;;;;;;;7.57;88.31;102836.31;5071740;28;20039;-69
2021/11/15 11:16:18;;;;;;;25.48;12.43;;;;;;;7.48;89.41;102831.94;5072874;28;20024;-68